sensor_id;sensor_type;location;lat;lon;timestamp;pressure;altitude;pressure_sealevel;temperature;humidity
55460;BME280;41326;45.302;-122.946;2022-07-01T00:00:39;101094.22;;;22.66;50.98
55460;BME280;41326;45.302;-122.946;2022-07-01T00:03:09;101091.98;;;22.50;50.57
55460;BME280;41326;45.302;-122.946;2022-07-01T00:05:40;101085.84;;;22.37;49.99
55460;BME280;41326;45.302;-122.946;2022-07-01T00:08:10;101086.29;;;22.30;51.05
55460;BME280;41326;45.302;-122.946;2022-07-01T00:10:41;101083.97;;;22.31;51.48
55460;BME280;41326;45.302;-122.946;2022-07-01T00:13:11;101079.88;;;22.27;51.93
55460;BME280;41326;45.302;-122.946;2022-07-01T00:15:41;101079.72;;;22.29;52.12
55460;BME280;41326;45.302;-122.946;2022-07-01T00:18:12;101079.30;;;22.26;52.51
55460;BME280;41326;45.302;-122.946;2022-07-01T00:20:42;101075.34;;;22.40;52.95
55460;BME280;41326;45.302;-122.946;2022-07-01T00:23:13;101070.42;;;22.52;53.39
55460;BME280;41326;45.302;-122.946;2022-07-01T00:25:42;101069.52;;;22.58;53.34
55460;BME280;41326;45.302;-122.946;2022-07-01T00:28:13;101067.01;;;22.67;53.24
55460;BME280;41326;45.302;-122.946;2022-07-01T00:30:44;101061.23;;;22.69;53.28
55460;BME280;41326;45.302;-122.946;2022-07-01T00:33:14;101061.45;;;22.79;51.72
55460;BME280;41326;45.302;-122.946;2022-07-01T00:35:45;101056.56;;;22.81;49.83
55460;BME280;41326;45.302;-122.946;2022-07-01T00:38:15;101053.29;;;22.70;49.03
55460;BME280;41326;45.302;-122.946;2022-07-01T00:40:45;101050.94;;;22.49;49.09
55460;BME280;41326;45.302;-122.946;2022-07-01T00:43:16;101048.57;;;22.38;50.75
55460;BME280;41326;45.302;-122.946;2022-07-01T00:45:49;101047.51;;;22.36;51.23
55460;BME280;41326;45.302;-122.946;2022-07-01T00:48:16;101049.74;;;22.42;51.41
55460;BME280;41326;45.302;-122.946;2022-07-01T00:50:46;101043.89;;;22.50;51.49
55460;BME280;41326;45.302;-122.946;2022-07-01T00:53:17;101044.64;;;22.58;51.74
55460;BME280;41326;45.302;-122.946;2022-07-01T00:55:48;101042.13;;;22.57;52.97
55460;BME280;41326;45.302;-122.946;2022-07-01T00:58:18;101037.31;;;22.67;52.48
55460;BME280;41326;45.302;-122.946;2022-07-01T01:00:48;101031.80;;;22.70;50.96
55460;BME280;41326;45.302;-122.946;2022-07-01T01:03:18;101029.26;;;22.69;51.56
55460;BME280;41326;45.302;-122.946;2022-07-01T01:05:48;101023.17;;;22.71;50.68
55460;BME280;41326;45.302;-122.946;2022-07-01T01:08:19;101023.51;;;22.72;51.01
55460;BME280;41326;45.302;-122.946;2022-07-01T01:10:49;101021.93;;;22.75;50.92
55460;BME280;41326;45.302;-122.946;2022-07-01T01:13:19;101020.58;;;22.85;51.19
55460;BME280;41326;45.302;-122.946;2022-07-01T01:15:50;101019.75;;;22.91;50.34
55460;BME280;41326;45.302;-122.946;2022-07-01T01:18:21;101020.52;;;22.99;48.92
55460;BME280;41326;45.302;-122.946;2022-07-01T01:20:52;101015.46;;;22.97;48.00
55460;BME280;41326;45.302;-122.946;2022-07-01T01:23:21;101012.73;;;22.94;47.15
55460;BME280;41326;45.302;-122.946;2022-07-01T01:25:53;101015.04;;;22.92;46.98
55460;BME280;41326;45.302;-122.946;2022-07-01T01:28:23;101011.81;;;22.86;46.10
55460;BME280;41326;45.302;-122.946;2022-07-01T01:30:52;101008.79;;;22.56;47.48
55460;BME280;41326;45.302;-122.946;2022-07-01T01:33:22;101009.41;;;22.26;49.39
55460;BME280;41326;45.302;-122.946;2022-07-01T01:35:53;101009.08;;;22.09;50.60
55460;BME280;41326;45.302;-122.946;2022-07-01T01:38:24;101006.59;;;22.25;50.63
55460;BME280;41326;45.302;-122.946;2022-07-01T01:40:53;101007.13;;;22.48;48.56
55460;BME280;41326;45.302;-122.946;2022-07-01T01:43:24;101008.63;;;22.64;47.71
55460;BME280;41326;45.302;-122.946;2022-07-01T01:45:54;101015.49;;;22.68;46.30
55460;BME280;41326;45.302;-122.946;2022-07-01T01:48:24;101014.44;;;22.60;46.16
55460;BME280;41326;45.302;-122.946;2022-07-01T01:50:55;101018.92;;;22.38;47.94
55460;BME280;41326;45.302;-122.946;2022-07-01T01:53:25;101018.71;;;22.09;49.56
55460;BME280;41326;45.302;-122.946;2022-07-01T01:55:57;101018.34;;;22.03;50.14
55460;BME280;41326;45.302;-122.946;2022-07-01T01:58:26;101020.24;;;22.31;48.31
55460;BME280;41326;45.302;-122.946;2022-07-01T02:00:56;101021.95;;;22.46;46.85
55460;BME280;41326;45.302;-122.946;2022-07-01T02:03:26;101020.48;;;22.46;45.57
55460;BME280;41326;45.302;-122.946;2022-07-01T02:05:56;101020.63;;;22.42;45.45
55460;BME280;41326;45.302;-122.946;2022-07-01T02:08:27;101021.55;;;22.32;46.43
55460;BME280;41326;45.302;-122.946;2022-07-01T02:10:57;101023.16;;;22.08;47.85
55460;BME280;41326;45.302;-122.946;2022-07-01T02:13:28;101022.92;;;22.00;48.71
55460;BME280;41326;45.302;-122.946;2022-07-01T02:15:57;101024.57;;;21.89;49.45
55460;BME280;41326;45.302;-122.946;2022-07-01T02:18:28;101026.30;;;21.91;49.84
55460;BME280;41326;45.302;-122.946;2022-07-01T02:20:58;101024.16;;;22.12;48.49
55460;BME280;41326;45.302;-122.946;2022-07-01T02:23:29;101025.91;;;22.30;47.14
55460;BME280;41326;45.302;-122.946;2022-07-01T02:25:59;101022.11;;;22.36;46.22
55460;BME280;41326;45.302;-122.946;2022-07-01T02:28:29;101024.14;;;22.28;46.73
55460;BME280;41326;45.302;-122.946;2022-07-01T02:31:00;101026.01;;;22.10;47.87
55460;BME280;41326;45.302;-122.946;2022-07-01T02:33:31;101027.25;;;22.04;48.53
55460;BME280;41326;45.302;-122.946;2022-07-01T02:36:00;101027.75;;;21.96;49.17
55460;BME280;41326;45.302;-122.946;2022-07-01T02:38:30;101030.57;;;21.98;49.58
55460;BME280;41326;45.302;-122.946;2022-07-01T02:41:01;101032.43;;;22.06;50.33
55460;BME280;41326;45.302;-122.946;2022-07-01T02:43:31;101032.48;;;22.18;50.95
55460;BME280;41326;45.302;-122.946;2022-07-01T02:46:02;101033.96;;;22.21;51.12
55460;BME280;41326;45.302;-122.946;2022-07-01T02:48:32;101041.01;;;22.48;49.01
55460;BME280;41326;45.302;-122.946;2022-07-01T02:51:02;101044.03;;;22.64;47.94
55460;BME280;41326;45.302;-122.946;2022-07-01T02:53:32;101048.00;;;22.62;46.54
55460;BME280;41326;45.302;-122.946;2022-07-01T02:56:03;101050.14;;;22.62;46.16
55460;BME280;41326;45.302;-122.946;2022-07-01T02:58:33;101047.92;;;22.60;45.69
55460;BME280;41326;45.302;-122.946;2022-07-01T03:01:04;101049.81;;;22.46;46.24
55460;BME280;41326;45.302;-122.946;2022-07-01T03:03:34;101047.59;;;22.22;48.59
55460;BME280;41326;45.302;-122.946;2022-07-01T03:06:04;101047.49;;;22.01;49.64
55460;BME280;41326;45.302;-122.946;2022-07-01T03:08:35;101052.40;;;21.90;50.45
55460;BME280;41326;45.302;-122.946;2022-07-01T03:11:05;101049.32;;;21.88;50.95
55460;BME280;41326;45.302;-122.946;2022-07-01T03:13:35;101054.40;;;21.84;51.54
55460;BME280;41326;45.302;-122.946;2022-07-01T03:16:06;101055.55;;;21.90;51.87
55460;BME280;41326;45.302;-122.946;2022-07-01T03:18:36;101057.14;;;21.92;52.13
55460;BME280;41326;45.302;-122.946;2022-07-01T03:21:06;101058.31;;;22.04;52.88
55460;BME280;41326;45.302;-122.946;2022-07-01T03:23:37;101061.10;;;22.11;54.45
55460;BME280;41326;45.302;-122.946;2022-07-01T03:26:07;101065.57;;;22.08;57.17
55460;BME280;41326;45.302;-122.946;2022-07-01T03:28:37;101065.41;;;22.30;55.11
55460;BME280;41326;45.302;-122.946;2022-07-01T03:31:08;101065.85;;;22.49;52.96
55460;BME280;41326;45.302;-122.946;2022-07-01T03:33:38;101067.21;;;22.50;52.65
55460;BME280;41326;45.302;-122.946;2022-07-01T03:36:08;101068.70;;;22.56;54.56
55460;BME280;41326;45.302;-122.946;2022-07-01T03:38:39;101069.89;;;22.56;52.62
55460;BME280;41326;45.302;-122.946;2022-07-01T03:41:09;101074.55;;;22.44;53.89
55460;BME280;41326;45.302;-122.946;2022-07-01T03:43:40;101072.23;;;22.34;56.18
55460;BME280;41326;45.302;-122.946;2022-07-01T03:46:10;101071.26;;;22.27;57.87
55460;BME280;41326;45.302;-122.946;2022-07-01T03:48:40;101070.91;;;22.23;57.98
55460;BME280;41326;45.302;-122.946;2022-07-01T03:51:11;101073.76;;;22.25;58.53
55460;BME280;41326;45.302;-122.946;2022-07-01T03:53:41;101074.20;;;22.31;59.18
55460;BME280;41326;45.302;-122.946;2022-07-01T03:56:12;101068.36;;;22.35;58.99
55460;BME280;41326;45.302;-122.946;2022-07-01T03:58:41;101072.34;;;22.28;59.52
55460;BME280;41326;45.302;-122.946;2022-07-01T04:01:12;101077.61;;;22.25;60.46
55460;BME280;41326;45.302;-122.946;2022-07-01T04:03:43;101073.98;;;22.19;60.73
55460;BME280;41326;45.302;-122.946;2022-07-01T04:06:13;101076.32;;;22.12;60.85
55460;BME280;41326;45.302;-122.946;2022-07-01T04:08:43;101077.54;;;22.12;60.88
55460;BME280;41326;45.302;-122.946;2022-07-01T04:11:13;101080.68;;;22.12;60.91
55460;BME280;41326;45.302;-122.946;2022-07-01T04:13:44;101084.12;;;22.19;60.60
55460;BME280;41326;45.302;-122.946;2022-07-01T04:16:14;101081.94;;;22.21;60.57
55460;BME280;41326;45.302;-122.946;2022-07-01T04:18:44;101086.81;;;22.15;61.09
55460;BME280;41326;45.302;-122.946;2022-07-01T04:21:15;101088.88;;;22.24;61.10
55460;BME280;41326;45.302;-122.946;2022-07-01T04:23:45;101092.98;;;22.05;62.04
55460;BME280;41326;45.302;-122.946;2022-07-01T04:26:16;101096.19;;;22.06;61.73
55460;BME280;41326;45.302;-122.946;2022-07-01T04:28:46;101104.00;;;22.03;62.05
55460;BME280;41326;45.302;-122.946;2022-07-01T04:31:16;101105.50;;;22.09;61.70
55460;BME280;41326;45.302;-122.946;2022-07-01T04:33:47;101111.47;;;22.09;61.89
55460;BME280;41326;45.302;-122.946;2022-07-01T04:36:17;101112.68;;;22.07;61.80
55460;BME280;41326;45.302;-122.946;2022-07-01T04:38:47;101113.65;;;22.06;61.86
55460;BME280;41326;45.302;-122.946;2022-07-01T04:41:17;101113.11;;;21.91;62.64
55460;BME280;41326;45.302;-122.946;2022-07-01T04:43:48;101121.14;;;21.88;62.82
55460;BME280;41326;45.302;-122.946;2022-07-01T04:46:18;101129.78;;;21.87;62.69
55460;BME280;41326;45.302;-122.946;2022-07-01T04:48:49;101129.60;;;21.83;62.62
55460;BME280;41326;45.302;-122.946;2022-07-01T04:51:19;101125.52;;;21.78;62.65
55460;BME280;41326;45.302;-122.946;2022-07-01T04:53:50;101133.05;;;21.81;62.25
55460;BME280;41326;45.302;-122.946;2022-07-01T04:56:20;101129.88;;;21.87;61.96
55460;BME280;41326;45.302;-122.946;2022-07-01T04:58:51;101135.35;;;21.81;62.12
55460;BME280;41326;45.302;-122.946;2022-07-01T05:01:21;101142.96;;;21.76;62.51
55460;BME280;41326;45.302;-122.946;2022-07-01T05:03:52;101143.00;;;21.72;62.49
55460;BME280;41326;45.302;-122.946;2022-07-01T05:06:22;101139.71;;;21.68;62.52
55460;BME280;41326;45.302;-122.946;2022-07-01T05:08:52;101144.17;;;21.52;63.22
55460;BME280;41326;45.302;-122.946;2022-07-01T05:11:23;101147.27;;;21.49;63.11
55460;BME280;41326;45.302;-122.946;2022-07-01T05:13:53;101149.90;;;21.49;63.06
55460;BME280;41326;45.302;-122.946;2022-07-01T05:16:23;101151.57;;;21.52;62.93
55460;BME280;41326;45.302;-122.946;2022-07-01T05:18:53;101153.27;;;21.47;63.00
55460;BME280;41326;45.302;-122.946;2022-07-01T05:21:24;101154.23;;;21.45;63.42
55460;BME280;41326;45.302;-122.946;2022-07-01T05:23:54;101157.95;;;21.32;63.62
55460;BME280;41326;45.302;-122.946;2022-07-01T05:26:25;101157.77;;;21.21;64.12
55460;BME280;41326;45.302;-122.946;2022-07-01T05:28:55;101156.66;;;21.25;63.87
55460;BME280;41326;45.302;-122.946;2022-07-01T05:31:26;101154.88;;;21.24;63.77
55460;BME280;41326;45.302;-122.946;2022-07-01T05:33:56;101158.07;;;21.29;63.65
55460;BME280;41326;45.302;-122.946;2022-07-01T05:36:26;101156.38;;;21.31;63.59
55460;BME280;41326;45.302;-122.946;2022-07-01T05:38:56;101153.49;;;21.33;63.62
55460;BME280;41326;45.302;-122.946;2022-07-01T05:41:27;101153.95;;;21.42;63.43
55460;BME280;41326;45.302;-122.946;2022-07-01T05:43:57;101151.74;;;21.50;63.26
55460;BME280;41326;45.302;-122.946;2022-07-01T05:46:27;101150.96;;;21.48;63.29
55460;BME280;41326;45.302;-122.946;2022-07-01T05:48:58;101155.74;;;21.52;63.09
55460;BME280;41326;45.302;-122.946;2022-07-01T05:52:36;101155.45;;;21.52;63.03
55460;BME280;41326;45.302;-122.946;2022-07-01T05:55:07;101155.32;;;21.55;62.89
55460;BME280;41326;45.302;-122.946;2022-07-01T05:57:37;101162.33;;;21.59;62.72
55460;BME280;41326;45.302;-122.946;2022-07-01T06:00:07;101161.97;;;21.63;62.60
55460;BME280;41326;45.302;-122.946;2022-07-01T06:02:37;101167.09;;;21.63;62.63
55460;BME280;41326;45.302;-122.946;2022-07-01T06:05:08;101167.26;;;21.66;62.52
55460;BME280;41326;45.302;-122.946;2022-07-01T06:07:38;101171.71;;;21.70;62.35
55460;BME280;41326;45.302;-122.946;2022-07-01T06:10:09;101173.43;;;21.69;62.30
55460;BME280;41326;45.302;-122.946;2022-07-01T06:12:39;101177.32;;;21.74;62.09
55460;BME280;41326;45.302;-122.946;2022-07-01T06:15:10;101179.51;;;21.75;62.05
55460;BME280;41326;45.302;-122.946;2022-07-01T06:17:39;101180.46;;;21.76;61.99
55460;BME280;41326;45.302;-122.946;2022-07-01T06:20:09;101182.52;;;21.74;62.06
55460;BME280;41326;45.302;-122.946;2022-07-01T06:22:39;101180.38;;;21.77;61.92
55460;BME280;41326;45.302;-122.946;2022-07-01T06:25:10;101181.86;;;21.70;62.14
55460;BME280;41326;45.302;-122.946;2022-07-01T06:27:44;101182.15;;;21.79;61.84
55460;BME280;41326;45.302;-122.946;2022-07-01T06:30:12;101183.80;;;21.76;61.91
55460;BME280;41326;45.302;-122.946;2022-07-01T06:32:41;101185.56;;;21.80;61.76
55460;BME280;41326;45.302;-122.946;2022-07-01T06:35:12;101190.91;;;21.81;61.71
55460;BME280;41326;45.302;-122.946;2022-07-01T06:37:42;101195.03;;;21.81;61.70
55460;BME280;41326;45.302;-122.946;2022-07-01T06:40:12;101194.65;;;21.80;61.75
55460;BME280;41326;45.302;-122.946;2022-07-01T06:42:43;101195.22;;;21.79;61.69
55460;BME280;41326;45.302;-122.946;2022-07-01T06:45:13;101194.22;;;21.72;61.93
55460;BME280;41326;45.302;-122.946;2022-07-01T06:47:43;101198.80;;;21.76;61.78
55460;BME280;41326;45.302;-122.946;2022-07-01T06:50:14;101199.32;;;21.76;61.76
55460;BME280;41326;45.302;-122.946;2022-07-01T06:52:44;101200.72;;;21.81;61.58
55460;BME280;41326;45.302;-122.946;2022-07-01T06:55:14;101199.32;;;21.84;61.43
55460;BME280;41326;45.302;-122.946;2022-07-01T06:57:44;101201.49;;;21.80;61.49
55460;BME280;41326;45.302;-122.946;2022-07-01T07:00:16;101205.04;;;21.85;61.29
55460;BME280;41326;45.302;-122.946;2022-07-01T07:02:45;101207.46;;;21.80;61.39
55460;BME280;41326;45.302;-122.946;2022-07-01T07:05:16;101208.58;;;21.81;61.33
55460;BME280;41326;45.302;-122.946;2022-07-01T07:07:46;101209.97;;;21.81;61.37
55460;BME280;41326;45.302;-122.946;2022-07-01T07:10:16;101209.85;;;21.72;61.60
55460;BME280;41326;45.302;-122.946;2022-07-01T07:12:47;101211.67;;;21.73;61.60
55460;BME280;41326;45.302;-122.946;2022-07-01T07:15:17;101209.28;;;21.70;61.65
55460;BME280;41326;45.302;-122.946;2022-07-01T07:17:47;101215.92;;;21.71;61.57
55460;BME280;41326;45.302;-122.946;2022-07-01T07:20:17;101216.57;;;21.72;61.50
55460;BME280;41326;45.302;-122.946;2022-07-01T07:22:48;101221.19;;;21.73;61.43
55460;BME280;41326;45.302;-122.946;2022-07-01T07:25:19;101224.15;;;21.70;61.45
55460;BME280;41326;45.302;-122.946;2022-07-01T07:27:49;101228.56;;;21.72;61.33
55460;BME280;41326;45.302;-122.946;2022-07-01T07:30:19;101228.74;;;21.70;61.33
55460;BME280;41326;45.302;-122.946;2022-07-01T07:32:50;101226.82;;;21.66;61.40
55460;BME280;41326;45.302;-122.946;2022-07-01T07:35:20;101229.72;;;21.68;61.25
55460;BME280;41326;45.302;-122.946;2022-07-01T07:37:51;101231.61;;;21.69;61.11
55460;BME280;41326;45.302;-122.946;2022-07-01T07:40:22;101232.47;;;21.66;61.08
55460;BME280;41326;45.302;-122.946;2022-07-01T07:42:51;101232.06;;;21.67;60.93
55460;BME280;41326;45.302;-122.946;2022-07-01T07:45:22;101228.82;;;21.64;60.96
55460;BME280;41326;45.302;-122.946;2022-07-01T07:47:53;101231.28;;;21.62;61.01
55460;BME280;41326;45.302;-122.946;2022-07-01T07:50:22;101231.46;;;21.62;60.90
55460;BME280;41326;45.302;-122.946;2022-07-01T07:52:53;101232.52;;;21.63;60.80
55460;BME280;41326;45.302;-122.946;2022-07-01T07:55:24;101235.52;;;21.61;60.85
55460;BME280;41326;45.302;-122.946;2022-07-01T07:57:53;101237.65;;;21.63;60.75
55460;BME280;41326;45.302;-122.946;2022-07-01T08:00:24;101240.34;;;21.64;60.69
55460;BME280;41326;45.302;-122.946;2022-07-01T08:02:55;101240.63;;;21.64;60.65
55460;BME280;41326;45.302;-122.946;2022-07-01T08:05:25;101238.20;;;21.64;60.62
55460;BME280;41326;45.302;-122.946;2022-07-01T08:07:55;101239.61;;;21.67;60.55
55460;BME280;41326;45.302;-122.946;2022-07-01T08:10:25;101242.59;;;21.63;60.67
55460;BME280;41326;45.302;-122.946;2022-07-01T08:12:55;101239.45;;;21.64;60.62
55460;BME280;41326;45.302;-122.946;2022-07-01T08:15:26;101241.88;;;21.60;60.75
55460;BME280;41326;45.302;-122.946;2022-07-01T08:17:56;101242.62;;;21.63;60.63
55460;BME280;41326;45.302;-122.946;2022-07-01T08:20:27;101240.00;;;21.59;60.72
55460;BME280;41326;45.302;-122.946;2022-07-01T08:22:57;101234.62;;;21.63;60.45
55460;BME280;41326;45.302;-122.946;2022-07-01T08:25:28;101234.94;;;21.57;60.67
55460;BME280;41326;45.302;-122.946;2022-07-01T08:27:58;101234.52;;;21.58;60.61
55460;BME280;41326;45.302;-122.946;2022-07-01T08:30:28;101236.90;;;21.60;60.51
55460;BME280;41326;45.302;-122.946;2022-07-01T08:33:00;101235.33;;;21.61;60.45
55460;BME280;41326;45.302;-122.946;2022-07-01T08:35:29;101237.43;;;21.63;60.28
55460;BME280;41326;45.302;-122.946;2022-07-01T08:38:00;101243.04;;;21.62;60.26
55460;BME280;41326;45.302;-122.946;2022-07-01T08:40:32;101242.67;;;21.60;60.22
55460;BME280;41326;45.302;-122.946;2022-07-01T08:43:02;101243.74;;;21.57;60.27
55460;BME280;41326;45.302;-122.946;2022-07-01T08:45:33;101241.30;;;21.51;60.41
55460;BME280;41326;45.302;-122.946;2022-07-01T08:48:02;101244.65;;;21.52;60.31
55460;BME280;41326;45.302;-122.946;2022-07-01T08:50:31;101241.20;;;21.51;60.31
55460;BME280;41326;45.302;-122.946;2022-07-01T08:53:01;101242.97;;;21.54;60.17
55460;BME280;41326;45.302;-122.946;2022-07-01T08:55:32;101247.31;;;21.56;60.04
55460;BME280;41326;45.302;-122.946;2022-07-01T08:58:02;101251.87;;;21.53;60.08
55460;BME280;41326;45.302;-122.946;2022-07-01T09:00:36;101251.40;;;21.46;60.22
55460;BME280;41326;45.302;-122.946;2022-07-01T09:03:03;101252.12;;;21.44;60.21
55460;BME280;41326;45.302;-122.946;2022-07-01T09:05:33;101250.13;;;21.43;60.18
55460;BME280;41326;45.302;-122.946;2022-07-01T09:08:05;101250.96;;;21.39;60.27
55460;BME280;41326;45.302;-122.946;2022-07-01T09:10:34;101253.79;;;21.35;60.34
55460;BME280;41326;45.302;-122.946;2022-07-01T09:13:09;101254.55;;;21.35;60.29
55460;BME280;41326;45.302;-122.946;2022-07-01T09:15:36;101258.50;;;21.32;60.33
55460;BME280;41326;45.302;-122.946;2022-07-01T09:18:10;101261.24;;;21.28;60.53
55460;BME280;41326;45.302;-122.946;2022-07-01T09:20:36;101256.18;;;21.34;60.21
55460;BME280;41326;45.302;-122.946;2022-07-01T09:23:08;101258.32;;;21.35;60.09
55460;BME280;41326;45.302;-122.946;2022-07-01T09:25:38;101262.31;;;21.32;60.13
55460;BME280;41326;45.302;-122.946;2022-07-01T09:28:10;101262.24;;;21.31;60.15
55460;BME280;41326;45.302;-122.946;2022-07-01T09:30:36;101264.76;;;21.28;60.23
55460;BME280;41326;45.302;-122.946;2022-07-01T09:33:13;101265.54;;;21.23;60.39
55460;BME280;41326;45.302;-122.946;2022-07-01T09:35:37;101266.97;;;21.26;60.27
55460;BME280;41326;45.302;-122.946;2022-07-01T09:38:10;101269.87;;;21.20;60.44
55460;BME280;41326;45.302;-122.946;2022-07-01T09:40:46;101271.45;;;21.22;60.32
55460;BME280;41326;45.302;-122.946;2022-07-01T09:43:13;101271.88;;;21.21;60.34
55460;BME280;41326;45.302;-122.946;2022-07-01T09:45:41;101271.13;;;21.22;60.30
55460;BME280;41326;45.302;-122.946;2022-07-01T09:48:09;101274.72;;;21.22;60.31
55460;BME280;41326;45.302;-122.946;2022-07-01T09:50:39;101274.03;;;21.18;60.43
55460;BME280;41326;45.302;-122.946;2022-07-01T09:53:09;101275.58;;;21.19;60.34
55460;BME280;41326;45.302;-122.946;2022-07-01T09:55:40;101278.82;;;21.18;60.38
55460;BME280;41326;45.302;-122.946;2022-07-01T09:58:10;101284.70;;;21.21;60.25
55460;BME280;41326;45.302;-122.946;2022-07-01T10:00:41;101285.43;;;21.19;60.25
55460;BME280;41326;45.302;-122.946;2022-07-01T10:03:11;101287.46;;;21.19;60.19
55460;BME280;41326;45.302;-122.946;2022-07-01T10:05:45;101287.81;;;21.16;60.27
55460;BME280;41326;45.302;-122.946;2022-07-01T10:10:49;101288.98;;;21.13;60.30
55460;BME280;41326;45.302;-122.946;2022-07-01T10:13:13;101287.05;;;21.15;60.18
55460;BME280;41326;45.302;-122.946;2022-07-01T10:15:41;101288.49;;;21.13;60.22
55460;BME280;41326;45.302;-122.946;2022-07-01T10:18:20;101288.61;;;21.11;60.22
55460;BME280;41326;45.302;-122.946;2022-07-01T10:20:45;101287.16;;;21.07;60.31
55460;BME280;41326;45.302;-122.946;2022-07-01T10:23:13;101288.57;;;21.08;60.17
55460;BME280;41326;45.302;-122.946;2022-07-01T10:25:48;101289.10;;;21.05;60.22
55460;BME280;41326;45.302;-122.946;2022-07-01T10:28:21;101289.60;;;21.07;60.11
55460;BME280;41326;45.302;-122.946;2022-07-01T10:30:54;101291.05;;;21.03;60.20
55460;BME280;41326;45.302;-122.946;2022-07-01T10:35:50;101291.70;;;21.02;60.13
55460;BME280;41326;45.302;-122.946;2022-07-01T10:38:17;101294.14;;;21.03;60.04
55460;BME280;41326;45.302;-122.946;2022-07-01T10:40:46;101296.44;;;20.99;60.12
55460;BME280;41326;45.302;-122.946;2022-07-01T10:43:16;101297.11;;;20.98;60.12
55460;BME280;41326;45.302;-122.946;2022-07-01T10:45:49;101294.37;;;21.05;59.80
55460;BME280;41326;45.302;-122.946;2022-07-01T10:48:20;101292.13;;;20.99;59.95
55460;BME280;41326;45.302;-122.946;2022-07-01T10:50:46;101292.02;;;20.93;60.10
55460;BME280;41326;45.302;-122.946;2022-07-01T10:53:17;101295.55;;;20.92;60.10
55460;BME280;41326;45.302;-122.946;2022-07-01T10:55:51;101299.00;;;20.92;60.07
55460;BME280;41326;45.302;-122.946;2022-07-01T10:58:18;101298.23;;;20.90;60.06
55460;BME280;41326;45.302;-122.946;2022-07-01T11:00:49;101299.36;;;20.90;60.04
55460;BME280;41326;45.302;-122.946;2022-07-01T11:03:22;101300.75;;;20.86;60.13
55460;BME280;41326;45.302;-122.946;2022-07-01T11:05:51;101297.25;;;20.88;60.03
55460;BME280;41326;45.302;-122.946;2022-07-01T11:08:20;101296.92;;;20.85;60.06
55460;BME280;41326;45.302;-122.946;2022-07-01T11:10:51;101300.55;;;20.85;60.03
55460;BME280;41326;45.302;-122.946;2022-07-01T11:13:21;101299.62;;;20.78;60.21
55460;BME280;41326;45.302;-122.946;2022-07-01T11:15:51;101299.42;;;20.79;60.19
55460;BME280;41326;45.302;-122.946;2022-07-01T11:18:22;101299.17;;;20.81;60.08
55460;BME280;41326;45.302;-122.946;2022-07-01T11:20:52;101296.28;;;20.75;60.25
55460;BME280;41326;45.302;-122.946;2022-07-01T11:23:22;101295.15;;;20.78;60.15
55460;BME280;41326;45.302;-122.946;2022-07-01T11:25:52;101294.47;;;20.81;59.98
55460;BME280;41326;45.302;-122.946;2022-07-01T11:28:22;101294.43;;;20.77;60.06
55460;BME280;41326;45.302;-122.946;2022-07-01T11:33:23;101293.68;;;20.74;60.12
55460;BME280;41326;45.302;-122.946;2022-07-01T11:35:54;101294.65;;;20.73;60.13
55460;BME280;41326;45.302;-122.946;2022-07-01T11:38:26;101298.77;;;20.73;60.06
55460;BME280;41326;45.302;-122.946;2022-07-01T11:40:55;101303.02;;;20.70;60.17
55460;BME280;41326;45.302;-122.946;2022-07-01T11:43:27;101301.27;;;20.72;60.07
55460;BME280;41326;45.302;-122.946;2022-07-01T11:45:57;101300.51;;;20.70;60.05
55460;BME280;41326;45.302;-122.946;2022-07-01T11:48:31;101302.84;;;20.66;60.16
55460;BME280;41326;45.302;-122.946;2022-07-01T11:50:56;101303.21;;;20.68;60.08
55460;BME280;41326;45.302;-122.946;2022-07-01T11:53:27;101301.08;;;20.67;59.99
55460;BME280;41326;45.302;-122.946;2022-07-01T11:55:58;101302.13;;;20.68;59.93
55460;BME280;41326;45.302;-122.946;2022-07-01T12:00:57;101301.73;;;20.64;59.95
55460;BME280;41326;45.302;-122.946;2022-07-01T12:03:33;101302.34;;;20.62;59.99
55460;BME280;41326;45.302;-122.946;2022-07-01T12:05:58;101302.01;;;20.60;59.98
55460;BME280;41326;45.302;-122.946;2022-07-01T12:08:28;101304.70;;;20.63;59.86
55460;BME280;41326;45.302;-122.946;2022-07-01T12:10:58;101306.44;;;20.59;59.95
55460;BME280;41326;45.302;-122.946;2022-07-01T12:13:29;101308.56;;;20.59;59.91
55460;BME280;41326;45.302;-122.946;2022-07-01T12:18:29;101307.30;;;20.60;59.77
55460;BME280;41326;45.302;-122.946;2022-07-01T12:20:59;101305.85;;;20.57;59.86
55460;BME280;41326;45.302;-122.946;2022-07-01T12:23:30;101307.42;;;20.54;59.92
55460;BME280;41326;45.302;-122.946;2022-07-01T12:26:00;101309.46;;;20.54;59.88
55460;BME280;41326;45.302;-122.946;2022-07-01T12:28:33;101310.00;;;20.53;59.87
55460;BME280;41326;45.302;-122.946;2022-07-01T12:31:06;101312.67;;;20.47;60.07
55460;BME280;41326;45.302;-122.946;2022-07-01T12:33:32;101313.79;;;20.48;59.99
55460;BME280;41326;45.302;-122.946;2022-07-01T12:36:03;101312.62;;;20.44;60.06
55460;BME280;41326;45.302;-122.946;2022-07-01T12:38:33;101317.80;;;20.48;59.90
55460;BME280;41326;45.302;-122.946;2022-07-01T12:41:02;101318.50;;;20.48;59.89
55460;BME280;41326;45.302;-122.946;2022-07-01T12:43:34;101318.44;;;20.45;59.96
55460;BME280;41326;45.302;-122.946;2022-07-01T12:46:04;101318.93;;;20.42;60.03
55460;BME280;41326;45.302;-122.946;2022-07-01T12:51:03;101316.00;;;20.40;60.03